Springfield, MO

11:23 AM CDT on March 27, 2017 (GMT -0500)
Springfield-Branson Regional | | Change Station

Elev 1266 ft 37.24 °N, 93.39 °W | Updated 31 minutes ago

Overcast
Overcast
55 °F
Feels Like 55 °F
N
8
Wind Variable Wind from West

Today
High -- | Low -- °F
--% Chance of Precip.
Yesterday
High -- | Low -- °F
Precip. -- in
Pressure 29.84 in
Visibility 4.0 miles
Clouds Mostly Cloudy 700 ft
Overcast 1200 ft
Dew Point 53 °F
Humidity 93%
Rainfall 0.74 in
Snow Depth Not available.
7:06 AM 7:31 PM
Waning Crescent, 0% visible
METAR KSGF 271552Z 28007KT 4SM -RA BR BKN007 OVC012 13/12 A2985 RMK AO2 RAB16 CIG 004V009 SLP105 P0003 T01280117
Pressure 29.84 in
Visibility 4.0 miles
Clouds Mostly Cloudy 700 ft
Overcast 1200 ft
Dew Point 53 °F
Humidity 93%
Rainfall 0.74 in
Snow Depth Not available.
7:06 AM 7:31 PM
Waning Crescent, 0% visible
METAR KSGF 271552Z 28007KT 4SM -RA BR BKN007 OVC012 13/12 A2985 RMK AO2 RAB16 CIG 004V009 SLP105 P0003 T01280117

Get Severe Weather Alerts

Thanks for signing up!

Be on the lookout for a verification email in your inbox.

You'll start receiving the daily forecast at 8 AM.

×

10-Day Weather Forecast

Almanac

Astronomy

Mar. 27, 2017 Rise Set
Actual Time
Civil Twilight
Nautical Twilight
Astronomical Twilight
Moon
Length of Visible Light
Length of Day
Tomorrow will be .
, % of the Moon is Illuminated

Today's Extremes

State Highs State Lows

Community

WunderPhotos

Upload Photos

1,962,540 photos uploaded!

WunderBlog® & News

Nearby

Air Quality

  Air Quality AQ Index Pollutant
Not available.

Snow Depth

Station Depth Elevation

Earthquake Activity

City Distance Mag. Time & Date
Minimum magnitude displayed is 2.5.

Earthquake Activity

City Distance Mag. Time & Date
Minimum magnitude displayed is 2.5.

Coastal Water Temperatures

Place Temperature

Stations

Nearby Weather Stations

Station Location Temp. Windchill Dew Point Humidity Wind Precip. Elev Updated Type
                   

Watches & Warnings

There are currently no watches in effect.